Time;durP1;ratioP1;P1;durP2;ratioP2;P2;SDS_P1;SDS_P2;PMS_P1;PMS_P2;Temp;Humidity;BMP_temperature;BMP_pressure;BME280_temperature;BME280_humidity;BME280_pressure;Samples;Min_cycle;Max_cycle;Signal;HPM_P1;HPM_P2
2023/03/27 00:02:17;;;;;;;10.02;2.10;;;3.80;1.00;;;;;;4987227;28;20037;-66
2023/03/27 00:04:43;;;;;;;14.15;2.20;;;3.80;1.00;;;;;;4987496;28;20605;-66
2023/03/27 00:07:09;;;;;;;11.90;2.28;;;3.70;1.00;;;;;;4983041;28;20072;-66
2023/03/27 00:09:36;;;;;;;9.90;1.80;;;3.90;1.00;;;;;;4987374;28;20050;-67
2023/03/27 00:12:02;;;;;;;14.52;2.22;;;3.90;1.00;;;;;;4988455;28;20034;-63
2023/03/27 00:14:28;;;;;;;15.30;1.95;;;3.90;1.00;;;;;;4987570;28;20142;-67
2023/03/27 00:16:53;;;;;;;12.00;2.08;;;3.80;1.00;;;;;;4987428;28;20031;-67
2023/03/27 00:19:19;;;;;;;14.50;2.17;;;3.70;1.00;;;;;;4987501;28;20447;-67
2023/03/27 00:21:45;;;;;;;11.57;2.90;;;3.90;1.00;;;;;;4986188;28;20042;-67
2023/03/27 00:24:11;;;;;;;8.25;2.42;;;3.90;1.00;;;;;;4986875;28;20026;-67
2023/03/27 00:26:39;;;;;;;12.13;1.80;;;3.90;1.00;;;;;;4986226;28;20061;-67
2023/03/27 00:29:06;;;;;;;11.80;2.25;;;3.80;1.00;;;;;;4972575;28;20072;-66
2023/03/27 00:31:31;;;;;;;9.07;2.00;;;3.60;1.00;;;;;;4989333;28;20141;-67
2023/03/27 00:33:57;;;;;;;13.73;1.98;;;3.80;1.00;;;;;;4987503;28;20114;-67
2023/03/27 00:36:23;;;;;;;14.98;2.40;;;3.70;1.00;;;;;;4985288;28;20041;-67
2023/03/27 00:38:51;;;;;;;13.80;2.53;;;3.60;1.00;;;;;;4987888;28;20030;-67
2023/03/27 00:41:18;;;;;;;14.05;1.92;;;3.60;1.00;;;;;;4985924;28;20567;-67
2023/03/27 00:43:44;;;;;;;11.20;1.80;;;3.80;1.00;;;;;;4987882;28;20038;-67
2023/03/27 00:46:33;;;;;;;9.55;2.15;;;3.70;1.00;;;;;;4987778;28;20121;-66
2023/03/27 00:49:02;;;;;;;11.90;1.92;;;3.50;1.00;;;;;;4985758;28;20567;-67
2023/03/27 00:51:30;;;;;;;8.88;2.10;;;3.40;1.00;;;;;;4986303;28;20030;-66
2023/03/27 00:53:56;;;;;;;22.40;3.35;;;3.50;1.00;;;;;;4988215;28;20038;-68
2023/03/27 00:56:22;;;;;;;13.10;1.90;;;3.40;1.30;;;;;;4982609;28;20653;-66
2023/03/27 00:58:55;;;;;;;9.77;2.50;;;3.30;1.00;;;;;;4986610;28;20030;-67
2023/03/27 01:01:23;;;;;;;;;;;3.30;1.00;;;;;;4985179;28;20034;-67
2023/03/27 01:03:50;;;;;;;15.57;2.30;;;3.40;10.60;;;;;;4987087;28;19910;-67
2023/03/27 01:06:17;;;;;;;12.57;2.05;;;3.40;1.00;;;;;;4986109;28;20038;-68
2023/03/27 01:08:44;;;;;;;14.07;2.45;;;3.30;1.00;;;;;;4987441;28;20053;-67
2023/03/27 01:11:17;;;;;;;11.75;1.88;;;3.40;1.00;;;;;;4985646;28;20035;-66
2023/03/27 01:14:23;;;;;;;17.45;2.40;;;3.20;1.00;;;;;;4986336;28;20065;-66
2023/03/27 01:16:56;;;;;;;9.68;2.30;;;3.10;40.80;;;;;;4985415;28;20334;-66
2023/03/27 01:19:38;;;;;;;10.80;2.28;;;3.10;32.10;;;;;;4984971;28;20120;-67
2023/03/27 01:22:20;;;;;;;10.23;1.85;;;3.20;28.00;;;;;;4985876;28;20209;-67
2023/03/27 01:25:30;;;;;;;12.30;2.10;;;3.30;18.10;;;;;;4986365;28;20046;-67
2023/03/27 01:28:21;;;;;;;12.35;2.08;;;3.30;5.00;;;;;;4987542;28;20096;-67
2023/03/27 01:30:55;;;;;;;10.98;1.67;;;3.50;43.70;;;;;;4987835;28;20054;-67
2023/03/27 01:33:39;;;;;;;15.52;2.13;;;3.40;1.00;;;;;;4986150;28;20045;-66
2023/03/27 01:36:23;;;;;;;8.55;2.20;;;3.30;1.00;;;;;;4988512;28;20034;-66
2023/03/27 01:39:07;;;;;;;10.02;2.10;;;3.50;3.60;;;;;;4987845;28;20030;-66
2023/03/27 01:41:42;;;;;;;18.73;2.33;;;3.60;1.00;;;;;;4983043;28;20398;-67
2023/03/27 01:44:30;;;;;;;11.07;2.20;;;3.60;1.00;;;;;;4987048;28;20490;-66
2023/03/27 01:47:06;;;;;;;6.93;1.60;;;3.60;1.00;;;;;;4987043;28;20129;-67
2023/03/27 01:49:39;;;;;;;16.70;2.75;;;3.50;1.00;;;;;;4983048;28;20026;-67
2023/03/27 01:52:12;;;;;;;9.38;2.00;;;3.40;12.60;;;;;;4985579;28;20043;-66
2023/03/27 01:54:42;;;;;;;12.02;1.92;;;3.40;17.50;;;;;;4985986;28;20026;-67
2023/03/27 01:57:21;;;;;;;13.25;2.35;;;3.40;28.00;;;;;;4988354;28;20100;-66
2023/03/27 01:59:58;;;;;;;12.73;2.10;;;3.40;5.40;;;;;;4990431;28;20027;-67
2023/03/27 02:02:29;;;;;;;12.18;1.88;;;3.40;1.00;;;;;;4988503;28;20046;-67
2023/03/27 02:05:12;;;;;;;6.85;1.83;;;3.50;26.90;;;;;;4984725;28;20042;-67
2023/03/27 02:07:42;;;;;;;12.85;2.33;;;3.50;1.00;;;;;;4983920;28;20026;-67
2023/03/27 02:10:14;;;;;;;15.45;2.40;;;3.50;1.00;;;;;;4987548;28;20486;-67
2023/03/27 02:12:45;;;;;;;11.85;2.60;;;3.40;1.00;;;;;;4988040;28;20503;-68
2023/03/27 02:15:20;;;;;;;11.30;2.00;;;3.30;1.00;;;;;;4985500;28;20045;-67
2023/03/27 02:17:55;;;;;;;9.77;2.22;;;3.30;1.00;;;;;;4984101;28;20027;-67
2023/03/27 02:20:22;;;;;;;13.05;2.08;;;3.20;1.00;;;;;;4984939;28;20042;-67
2023/03/27 02:22:49;;;;;;;8.45;1.90;;;3.30;5.80;;;;;;4986181;28;20050;-67
2023/03/27 02:25:26;;;;;;;9.95;1.92;;;3.30;21.30;;;;;;4984613;28;20022;-67
2023/03/27 02:28:08;;;;;;;6.10;1.85;;;3.20;13.00;;;;;;4970406;28;20027;-67
2023/03/27 02:31:00;;;;;;;7.68;1.80;;;3.20;17.70;;;;;;4982091;28;20034;-67
2023/03/27 02:33:32;;;;;;;8.17;1.77;;;3.30;29.00;;;;;;4984638;28;20386;-66
2023/03/27 02:36:20;;;;;;;7.82;1.83;;;3.40;42.10;;;;;;4990221;28;20270;-67
2023/03/27 02:39:09;;;;;;;14.65;1.88;;;3.40;54.90;;;;;;4985444;28;20490;-67
2023/03/27 02:42:04;;;;;;;15.35;2.30;;;3.20;23.60;;;;;;4985949;28;20046;-68
2023/03/27 02:44:51;;;;;;;12.13;2.30;;;3.20;62.20;;;;;;4985274;28;20536;-67
2023/03/27 02:47:54;;;;;;;10.40;1.75;;;3.20;16.20;;;;;;4986071;28;20034;-67
2023/03/27 02:50:26;;;;;;;13.13;2.25;;;3.10;39.80;;;;;;4980196;28;20038;-67
2023/03/27 02:53:00;;;;;;;10.60;2.03;;;3.20;68.20;;;;;;4986651;28;20031;-67
2023/03/27 02:55:32;;;;;;;8.52;1.80;;;3.20;50.00;;;;;;4967018;28;20890;-67
2023/03/27 02:58:09;;;;;;;6.40;2.05;;;3.10;89.40;;;;;;4985666;28;20432;-67
2023/03/27 03:00:40;;;;;;;8.20;2.28;;;3.10;99.90;;;;;;4979689;28;20077;-67
2023/03/27 03:03:12;;;;;;;10.27;2.05;;;3.10;94.00;;;;;;4983934;28;20518;-67
2023/03/27 03:05:38;;;;;;;10.93;1.98;;;3.10;99.90;;;;;;4981451;28;20092;-67
2023/03/27 03:08:04;;;;;;;7.90;1.70;;;2.90;99.90;;;;;;4984378;28;20034;-67
2023/03/27 03:10:32;;;;;;;6.18;1.63;;;3.10;99.90;;;;;;4984667;28;20044;-66
2023/03/27 03:12:57;;;;;;;5.05;1.88;;;3.00;99.90;;;;;;4983670;28;20054;-66
2023/03/27 03:15:23;;;;;;;7.97;2.20;;;3.20;99.90;;;;;;4984710;28;20026;-66
2023/03/27 03:17:48;;;;;;;11.82;2.47;;;3.00;99.90;;;;;;4967053;28;20026;-67
2023/03/27 03:20:15;;;;;;;8.27;2.13;;;3.10;99.90;;;;;;4983810;28;20101;-67
2023/03/27 03:22:41;;;;;;;14.60;2.85;;;3.10;99.90;;;;;;4984155;28;20096;-67
2023/03/27 03:25:07;;;;;;;7.80;2.10;;;3.10;99.90;;;;;;4984595;28;20512;-66
2023/03/27 03:27:33;;;;;;;12.77;2.05;;;3.10;99.90;;;;;;4984747;28;20034;-68
2023/03/27 03:29:59;;;;;;;9.70;2.28;;;3.10;99.90;;;;;;4984854;28;20501;-68
2023/03/27 03:32:26;;;;;;;12.40;2.38;;;3.20;99.90;;;;;;4983427;28;20038;-68
2023/03/27 03:34:52;;;;;;;10.65;2.10;;;2.90;95.40;;;;;;4984143;28;20669;-68
2023/03/27 03:37:18;;;;;;;8.82;1.80;;;3.00;99.90;;;;;;4984133;28;20030;-67
2023/03/27 03:39:44;;;;;;;9.45;2.03;;;3.00;99.90;;;;;;4985080;28;20031;-67
2023/03/27 03:42:10;;;;;;;11.13;2.17;;;2.70;99.90;;;;;;4982877;28;20038;-67
2023/03/27 03:44:36;;;;;;;11.93;2.47;;;2.80;99.90;;;;;;4985283;28;20049;-68
2023/03/27 03:47:02;;;;;;;10.77;2.00;;;2.90;99.90;;;;;;4983808;28;20457;-65
2023/03/27 03:49:27;;;;;;;10.68;2.10;;;3.00;99.90;;;;;;4984565;28;20398;-68
2023/03/27 03:51:53;;;;;;;11.73;2.17;;;3.00;99.90;;;;;;4984115;28;20417;-68
2023/03/27 03:54:18;;;;;;;14.50;2.10;;;2.90;99.90;;;;;;4983828;28;20473;-68
2023/03/27 03:56:44;;;;;;;9.80;2.30;;;3.00;99.90;;;;;;4983726;28;20423;-68
2023/03/27 03:59:12;;;;;;;9.77;1.77;;;2.80;99.90;;;;;;4983379;28;20406;-67
2023/03/27 04:01:39;;;;;;;14.88;2.13;;;2.80;99.90;;;;;;4984328;28;20041;-68
2023/03/27 04:04:07;;;;;;;10.27;2.08;;;3.20;99.90;;;;;;4983887;28;20038;-68
2023/03/27 04:06:36;;;;;;;11.02;2.45;;;3.00;99.90;;;;;;4983511;28;20038;-67
2023/03/27 04:09:05;;;;;;;10.27;2.60;;;3.00;99.90;;;;;;4982824;28;20043;-67
2023/03/27 04:11:31;;;;;;;9.27;1.88;;;3.00;99.90;;;;;;4985026;28;20061;-68
2023/03/27 04:13:57;;;;;;;13.80;2.58;;;2.90;99.90;;;;;;4966395;28;20092;-68
2023/03/27 04:16:22;;;;;;;13.15;2.38;;;3.00;99.90;;;;;;4982296;28;20050;-67
2023/03/27 04:18:49;;;;;;;10.25;2.30;;;3.20;99.90;;;;;;4983785;28;20038;-68
2023/03/27 04:21:16;;;;;;;9.52;2.15;;;3.30;99.90;;;;;;4983771;28;20042;-67
2023/03/27 04:23:44;;;;;;;10.88;2.97;;;3.30;99.90;;;;;;4984253;28;20034;-68
2023/03/27 04:26:10;;;;;;;10.20;2.10;;;3.10;99.90;;;;;;4982664;28;20064;-67
2023/03/27 04:28:37;;;;;;;12.77;2.67;;;3.20;99.90;;;;;;4983671;28;20401;-68
2023/03/27 04:31:05;;;;;;;12.35;2.15;;;2.90;99.90;;;;;;4967769;28;20159;-67
2023/03/27 04:33:33;;;;;;;10.30;2.45;;;3.00;99.90;;;;;;4986466;28;20501;-67
2023/03/27 04:35:59;;;;;;;12.63;2.55;;;2.90;99.90;;;;;;4986528;28;20569;-68
2023/03/27 04:38:26;;;;;;;9.48;2.75;;;3.20;99.90;;;;;;4985591;28;20366;-68
2023/03/27 04:40:53;;;;;;;8.82;2.25;;;3.10;99.90;;;;;;4984858;28;20101;-67
2023/03/27 04:43:20;;;;;;;11.63;2.42;;;2.80;99.90;;;;;;4986378;28;20089;-68
2023/03/27 04:45:47;;;;;;;12.75;2.58;;;2.90;99.90;;;;;;4988729;28;20073;-68
2023/03/27 04:48:13;;;;;;;9.23;2.35;;;2.90;99.90;;;;;;4987018;28;20033;-67
2023/03/27 04:50:42;;;;;;;9.60;2.65;;;3.00;99.90;;;;;;4985968;28;20473;-68
2023/03/27 04:53:08;;;;;;;9.27;3.03;;;3.20;99.90;;;;;;4986516;28;20030;-67
2023/03/27 04:55:36;;;;;;;9.82;2.78;;;3.20;99.90;;;;;;4987422;28;20038;-67
2023/03/27 04:58:06;;;;;;;17.50;3.17;;;3.10;99.90;;;;;;4983238;28;20433;-67
2023/03/27 05:00:32;;;;;;;14.45;2.50;;;3.00;99.90;;;;;;4987371;28;20373;-68
2023/03/27 05:02:59;;;;;;;12.23;2.65;;;3.10;99.90;;;;;;4989726;28;20121;-68
2023/03/27 05:05:25;;;;;;;12.20;2.75;;;3.00;99.90;;;;;;4992851;28;20087;-67
2023/03/27 05:07:51;;;;;;;9.10;2.80;;;3.10;99.90;;;;;;4984263;28;20030;-69
2023/03/27 05:10:17;;;;;;;17.45;3.22;;;3.30;99.90;;;;;;4986548;28;20035;-67
2023/03/27 05:12:44;;;;;;;11.98;2.72;;;3.30;99.90;;;;;;4985716;28;20498;-67
2023/03/27 05:15:11;;;;;;;13.43;2.33;;;3.20;99.90;;;;;;4986518;28;20588;-67
2023/03/27 05:17:41;;;;;;;16.40;2.58;;;3.50;99.90;;;;;;4986784;28;20031;-68
2023/03/27 05:20:15;;;;;;;13.65;2.67;;;3.40;99.90;;;;;;4985945;28;20440;-67
2023/03/27 05:22:42;;;;;;;6.85;2.53;;;3.40;99.90;;;;;;4986038;28;20042;-68
2023/03/27 05:25:08;;;;;;;12.77;3.15;;;3.40;99.90;;;;;;4986280;28;20445;-68
2023/03/27 05:27:34;;;;;;;12.40;3.00;;;3.30;99.90;;;;;;4980151;28;20037;-68
2023/03/27 05:30:00;;;;;;;10.07;2.78;;;3.40;99.90;;;;;;4986334;28;20046;-68
2023/03/27 05:32:25;;;;;;;13.93;2.80;;;3.40;99.90;;;;;;4985932;28;20030;-67
2023/03/27 05:34:53;;;;;;;9.70;2.40;;;3.30;99.90;;;;;;4985300;28;20077;-68
2023/03/27 05:37:20;;;;;;;8.63;2.50;;;3.10;99.90;;;;;;4985735;28;20057;-68
2023/03/27 05:39:46;;;;;;;7.75;2.33;;;3.10;99.90;;;;;;4987961;28;20034;-67
2023/03/27 05:42:13;;;;;;;7.78;2.47;;;3.00;99.90;;;;;;4985240;28;20088;-67
2023/03/27 05:44:39;;;;;;;12.88;2.33;;;3.10;99.90;;;;;;4970244;28;20042;-68
2023/03/27 05:47:04;;;;;;;6.45;2.10;;;3.20;99.90;;;;;;4992652;28;20129;-67
2023/03/27 05:49:30;;;;;;;11.32;2.30;;;3.10;99.90;;;;;;4987157;28;20150;-68
2023/03/27 05:51:57;;;;;;;14.50;2.10;;;3.20;99.90;;;;;;4985588;28;20050;-64
2023/03/27 05:54:22;;;;;;;14.85;2.50;;;3.10;99.90;;;;;;4985301;28;20447;-63
2023/03/27 05:56:48;;;;;;;8.70;1.92;;;3.10;99.90;;;;;;4979180;28;20351;-64
2023/03/27 05:59:14;;;;;;;11.45;2.20;;;3.20;99.90;;;;;;4980956;28;20129;-63
2023/03/27 06:01:39;;;;;;;8.90;1.98;;;3.20;99.90;;;;;;4985212;28;20046;-63
2023/03/27 06:04:07;;;;;;;6.95;2.00;;;3.30;99.90;;;;;;4985206;28;20245;-63
2023/03/27 06:06:34;;;;;;;7.05;1.90;;;3.30;99.90;;;;;;4984024;28;20837;-64
2023/03/27 06:08:59;;;;;;;5.70;2.03;;;3.20;99.90;;;;;;4987397;28;20076;-63
2023/03/27 06:11:25;;;;;;;17.10;3.33;;;3.40;99.90;;;;;;4983891;28;20458;-63
2023/03/27 06:13:50;;;;;;;6.63;1.65;;;3.40;99.90;;;;;;4982874;28;20105;-63
2023/03/27 06:16:19;;;;;;;8.38;2.25;;;3.40;99.90;;;;;;4989382;28;20505;-64
2023/03/27 06:18:45;;;;;;;5.88;1.90;;;3.40;99.90;;;;;;4986062;28;20525;-63
2023/03/27 06:21:11;;;;;;;6.18;1.73;;;3.40;99.90;;;;;;4984193;28;20724;-63
2023/03/27 06:23:37;;;;;;;5.25;1.85;;;3.40;99.90;;;;;;4983342;28;20046;-64
2023/03/27 06:26:03;;;;;;;4.80;1.77;;;3.50;99.90;;;;;;4983702;28;20035;-62
2023/03/27 06:28:29;;;;;;;7.80;1.67;;;3.60;99.90;;;;;;4984968;28;20046;-63
2023/03/27 06:30:56;;;;;;;10.70;2.50;;;3.70;99.90;;;;;;4986027;28;20113;-63
2023/03/27 06:33:24;;;;;;;5.65;1.98;;;3.70;99.90;;;;;;4986216;28;20487;-63
2023/03/27 06:35:50;;;;;;;6.00;1.75;;;3.80;99.90;;;;;;4984929;28;20517;-63
2023/03/27 06:38:17;;;;;;;7.55;1.73;;;3.80;99.90;;;;;;4988457;28;20061;-63
2023/03/27 06:40:44;;;;;;;8.48;2.05;;;3.90;99.90;;;;;;4987646;28;20033;-63
2023/03/27 06:43:10;;;;;;;6.63;1.92;;;3.90;99.90;;;;;;4988182;28;20339;-63
2023/03/27 06:45:45;;;;;;;4.72;1.40;;;4.20;99.90;;;;;;4986430;28;20034;-64
2023/03/27 06:48:11;;;;;;;6.18;1.65;;;4.10;99.90;;;;;;4979812;28;20260;-63
2023/03/27 06:50:38;;;;;;;7.15;1.80;;;4.00;99.90;;;;;;4984133;28;20031;-63
2023/03/27 06:53:04;;;;;;;7.20;2.13;;;4.10;99.90;;;;;;4984378;28;20030;-63
2023/03/27 06:55:31;;;;;;;6.57;1.92;;;4.20;99.90;;;;;;4984952;28;20049;-63
2023/03/27 06:57:58;;;;;;;2.30;1.38;;;4.30;99.90;;;;;;4984278;28;20493;-64
2023/03/27 07:00:30;;;;;;;8.70;1.85;;;4.40;99.90;;;;;;4984009;28;20035;-64
2023/03/27 07:03:01;;;;;;;6.43;1.63;;;4.50;99.90;;;;;;4984659;28;20401;-64
2023/03/27 07:05:29;;;;;;;7.20;2.00;;;4.40;99.90;;;;;;4984311;28;20040;-63
2023/03/27 07:07:55;;;;;;;4.20;1.52;;;4.60;99.90;;;;;;4984419;28;20030;-64
2023/03/27 07:10:22;;;;;;;5.70;1.75;;;4.70;89.00;;;;;;4984513;28;20105;-64
2023/03/27 07:12:50;;;;;;;5.25;1.63;;;4.70;89.10;;;;;;4983413;28;20096;-65
2023/03/27 07:15:16;;;;;;;6.80;1.73;;;4.70;42.20;;;;;;4982706;28;20370;-64
2023/03/27 07:17:43;;;;;;;6.75;1.70;;;4.80;57.00;;;;;;4984983;28;20027;-64
2023/03/27 07:20:11;;;;;;;8.43;2.35;;;4.90;35.60;;;;;;4984632;28;20069;-63
2023/03/27 07:22:37;;;;;;;9.00;1.67;;;5.00;52.20;;;;;;4981723;28;20042;-64
2023/03/27 07:25:03;;;;;;;4.68;1.73;;;5.00;39.80;;;;;;4984052;28;20037;-63
2023/03/27 07:27:29;;;;;;;6.40;1.60;;;5.10;18.30;;;;;;4985272;28;20041;-63
2023/03/27 07:29:57;;;;;;;31.90;14.10;;;5.10;25.30;;;;;;4986496;28;20130;-64
2023/03/27 07:32:23;;;;;;;7.65;2.00;;;5.20;8.40;;;;;;4984122;28;20580;-63
2023/03/27 07:34:49;;;;;;;6.22;1.52;;;5.30;1.00;;;;;;4983480;28;20042;-65
2023/03/27 07:37:14;;;;;;;6.85;1.50;;;5.40;25.80;;;;;;4981605;28;20117;-64
2023/03/27 07:39:40;;;;;;;3.70;1.50;;;5.20;1.00;;;;;;4985371;28;20037;-64
2023/03/27 07:42:07;;;;;;;7.35;1.65;;;5.20;1.00;;;;;;4983727;28;20038;-64
2023/03/27 07:44:33;;;;;;;8.00;1.70;;;5.30;18.20;;;;;;4985276;28;20042;-64
2023/03/27 07:46:59;;;;;;;3.97;1.50;;;5.30;1.00;;;;;;4966079;28;20259;-64
2023/03/27 07:49:25;;;;;;;3.35;1.52;;;5.40;1.00;;;;;;4983221;28;20050;-64
2023/03/27 07:51:52;;;;;;;5.57;1.70;;;5.40;1.00;;;;;;4984759;28;20089;-64
2023/03/27 07:54:18;;;;;;;8.85;2.00;;;5.40;1.00;;;;;;4984049;28;20486;-64
2023/03/27 07:56:43;;;;;;;6.00;1.63;;;5.50;1.00;;;;;;4985090;28;20041;-64
2023/03/27 07:59:10;;;;;;;8.30;1.90;;;5.40;1.00;;;;;;4985256;28;20034;-64
2023/03/27 08:01:36;;;;;;;2.47;1.48;;;5.50;1.00;;;;;;4985469;28;20105;-64
2023/03/27 08:04:02;;;;;;;6.85;1.50;;;5.70;1.00;;;;;;4986594;28;20042;-63
2023/03/27 08:06:28;;;;;;;9.52;2.00;;;5.40;1.00;;;;;;4987787;28;20482;-65
2023/03/27 08:08:54;;;;;;;5.72;1.40;;;5.50;1.00;;;;;;4990319;28;20042;-64
2023/03/27 08:11:19;;;;;;;6.63;1.63;;;5.60;1.00;;;;;;4988640;28;20022;-64
2023/03/27 08:13:45;;;;;;;6.03;2.00;;;5.80;1.00;;;;;;4987887;28;20053;-64
2023/03/27 08:16:16;;;;;;;6.35;2.10;;;5.90;1.00;;;;;;4988419;28;20033;-64
2023/03/27 08:18:43;;;;;;;8.85;2.40;;;5.70;1.00;;;;;;4986727;28;20563;-64
2023/03/27 08:21:10;;;;;;;7.80;1.92;;;5.90;1.00;;;;;;4985416;28;20069;-64
2023/03/27 08:23:36;;;;;;;13.40;2.42;;;5.80;1.00;;;;;;4986697;28;20105;-64
2023/03/27 08:26:02;;;;;;;4.90;1.60;;;5.80;1.00;;;;;;4986887;28;20093;-63
2023/03/27 08:28:33;;;;;;;9.85;2.25;;;5.70;1.00;;;;;;4989095;28;20038;-64
2023/03/27 08:31:01;;;;;;;5.22;1.75;;;5.70;1.00;;;;;;4986807;28;20044;-64
2023/03/27 08:33:27;;;;;;;12.20;2.00;;;5.90;1.00;;;;;;4988786;28;20041;-64
2023/03/27 08:35:55;;;;;;;11.98;2.88;;;5.80;99.90;;;;;;4990455;28;20038;-64
2023/03/27 08:38:22;;;;;;;8.00;1.88;;;5.90;99.90;;;;;;4991458;28;21241;-64
2023/03/27 08:40:52;;;;;;;7.78;2.15;;;6.10;99.90;;;;;;4986913;28;20121;-64
2023/03/27 08:43:21;;;;;;;12.70;1.98;;;6.20;99.90;;;;;;4985115;28;20026;-64
2023/03/27 08:46:02;;;;;;;6.90;1.60;;;6.00;1.00;;;;;;4988497;28;20393;-62
2023/03/27 08:48:55;;;;;;;7.93;3.30;;;5.90;1.00;;;;;;4968935;28;20023;-63
2023/03/27 08:51:33;;;;;;;7.13;1.57;;;6.40;1.00;;;;;;4962833;28;20128;-64
2023/03/27 08:54:13;;;;;;;7.22;1.75;;;6.60;46.70;;;;;;4965015;28;20078;-65
2023/03/27 08:56:39;;;;;;;6.80;2.05;;;6.60;1.00;;;;;;4985959;28;20482;-65
2023/03/27 08:59:11;;;;;;;8.07;2.05;;;6.30;99.90;;;;;;4986030;28;20042;-64
2023/03/27 09:02:04;;;;;;;6.53;2.25;;;6.40;1.00;;;;;;4988593;28;20077;-64
2023/03/27 09:04:43;;;;;;;9.50;2.33;;;6.50;10.60;;;;;;4993006;28;20044;-64
2023/03/27 09:07:23;;;;;;;10.88;2.13;;;6.60;20.10;;;;;;4983193;28;20027;-64
2023/03/27 09:10:14;;;;;;;12.63;2.53;;;6.60;1.00;;;;;;4986306;28;20042;-64
2023/03/27 09:12:48;;;;;;;8.15;2.25;;;6.30;1.00;;;;;;4985429;28;20401;-64
2023/03/27 09:15:25;;;;;;;10.05;2.13;;;6.20;1.00;;;;;;4985877;28;20569;-64
2023/03/27 09:18:03;;;;;;;8.80;1.92;;;6.20;99.90;;;;;;4994682;28;20034;-63
2023/03/27 09:21:02;;;;;;;8.32;2.08;;;6.40;1.00;;;;;;4989976;28;20042;-64
2023/03/27 09:23:35;;;;;;;7.38;1.77;;;6.30;99.90;;;;;;4970217;28;20383;-63
2023/03/27 09:26:07;;;;;;;10.43;2.28;;;6.10;99.90;;;;;;4992848;28;20045;-63
2023/03/27 09:28:50;;;;;;;12.50;2.20;;;6.60;1.00;;;;;;4986752;28;20035;-64
2023/03/27 09:31:26;;;;;;;6.90;1.77;;;6.90;99.90;;;;;;4981341;28;20042;-63
2023/03/27 09:33:52;;;;;;;10.55;2.28;;;6.90;1.00;;;;;;4981058;28;20043;-64
2023/03/27 09:36:20;;;;;;;7.97;1.88;;;6.90;99.90;;;;;;4985178;28;20034;-64
2023/03/27 09:38:49;;;;;;;8.80;1.88;;;7.20;99.90;;;;;;4984178;28;20030;-64
2023/03/27 09:41:28;;;;;;;10.75;1.92;;;7.30;39.20;;;;;;4986134;28;20041;-64
2023/03/27 09:44:31;;;;;;;15.45;2.13;;;7.40;1.00;;;;;;4989933;28;20031;-64
2023/03/27 09:47:11;;;;;;;11.77;2.40;;;7.40;65.40;;;;;;4966442;28;20034;-58
2023/03/27 09:49:39;;;;;;;13.07;2.33;;;7.20;1.00;;;;;;4981833;28;20108;-59
2023/03/27 09:52:06;;;;;;;10.55;1.80;;;6.90;99.90;;;;;;4987315;28;20259;-57
2023/03/27 09:54:50;;;;;;;7.38;1.70;;;6.80;1.00;;;;;;4995655;28;20452;-58
2023/03/27 09:57:16;;;;;;;6.97;1.73;;;6.50;31.60;;;;;;4980513;28;20049;-58
2023/03/27 10:00:01;;;;;;;6.55;1.70;;;6.40;1.00;;;;;;4985288;28;20590;-58
2023/03/27 10:02:29;;;;;;;11.30;4.55;;;6.60;1.00;;;;;;4967805;28;20464;-58
2023/03/27 10:05:18;;;;;;;11.02;2.90;;;6.90;99.90;;;;;;4986824;28;20038;-58
2023/03/27 10:07:44;;;;;;;6.97;1.70;;;7.20;99.90;;;;;;4985083;28;20037;-57
2023/03/27 10:10:16;;;;;;;11.95;1.70;;;;;;;;;;4985194;28;20417;-58
2023/03/27 10:12:42;;;;;;;6.43;1.45;;;7.60;99.90;;;;;;4986145;28;20045;-58
2023/03/27 10:15:35;;;;;;;6.20;1.55;;;7.50;99.90;;;;;;4985273;28;20035;-58
2023/03/27 10:18:23;;;;;;;11.18;1.88;;;7.10;1.00;;;;;;4978688;28;20035;-58
2023/03/27 10:20:53;;;;;;;9.57;1.55;;;7.20;1.00;;;;;;4984932;28;20062;-58
2023/03/27 10:29:25;;;;;;;9.20;1.70;;;7.30;1.00;;;;;;5102974;23;20038;-63
2023/03/27 10:31:54;;;;;;;5.93;1.48;;;7.10;44.30;;;;;;4978682;28;20042;-64
2023/03/27 10:34:29;;;;;;;5.43;1.75;;;7.00;92.60;;;;;;4981863;28;20389;-64
2023/03/27 10:36:54;;;;;;;6.88;1.50;;;7.10;1.00;;;;;;4992294;28;20042;-63
2023/03/27 10:39:25;;;;;;;7.43;1.40;;;7.40;1.00;;;;;;4985216;28;20033;-63
2023/03/27 10:41:51;;;;;;;5.07;1.08;;;7.60;1.00;;;;;;4979348;28;20030;-61
2023/03/27 10:44:19;;;;;;;7.85;1.50;;;7.50;1.00;;;;;;4982065;28;20437;-62
2023/03/27 10:46:45;;;;;;;4.00;1.20;;;7.40;47.10;;;;;;4981032;28;20142;-62
2023/03/27 10:49:33;;;;;;;3.35;1.25;;;7.30;25.90;;;;;;4984606;28;20397;-62
2023/03/27 10:52:15;;;;;;;2.42;0.60;;;7.30;14.00;;;;;;4982325;28;20154;-61
2023/03/27 10:55:03;;;;;;;1.88;0.40;;;5.50;1.00;;;;;;4979834;28;20403;-61
2023/03/27 10:57:34;;;;;;;1.42;0.52;;;4.50;99.90;;;;;;4982236;28;20041;-61
2023/03/27 11:00:19;;;;;;;1.25;0.65;;;4.10;99.90;;;;;;4979651;28;20039;-61
2023/03/27 11:03:14;;;;;;;2.85;0.80;;;4.00;99.90;;;;;;4980100;28;20525;-61
2023/03/27 11:05:47;;;;;;;3.38;0.82;;;4.00;99.90;;;;;;4979355;28;20035;-61
2023/03/27 11:08:45;;;;;;;2.97;0.90;;;4.30;99.90;;;;;;4976704;28;20030;-61
2023/03/27 11:11:35;;;;;;;1.17;0.70;;;4.20;99.90;;;;;;4979932;28;20033;-62
2023/03/27 11:14:08;;;;;;;4.03;0.90;;;4.30;99.90;;;;;;4984121;28;20038;-63
2023/03/27 11:16:51;;;;;;;3.45;0.80;;;4.80;99.90;;;;;;4981442;28;20034;-63
2023/03/27 11:19:25;;;;;;;1.75;0.52;;;4.90;99.90;;;;;;4981574;28;20140;-63
2023/03/27 11:21:56;;;;;;;3.50;0.65;;;5.00;99.90;;;;;;4982532;28;20034;-63
2023/03/27 11:24:49;;;;;;;1.52;0.90;;;5.10;99.90;;;;;;4979514;28;20117;-63
2023/03/27 11:27:26;;;;;;;1.45;0.60;;;5.20;99.90;;;;;;4975772;28;20034;-63
2023/03/27 11:30:07;;;;;;;4.25;0.65;;;5.30;99.90;;;;;;4981939;28;20026;-63
2023/03/27 11:33:10;;;;;;;2.85;0.63;;;5.50;99.90;;;;;;4978906;28;20347;-63
2023/03/27 11:35:42;;;;;;;1.80;0.90;;;5.50;99.90;;;;;;4974199;28;20053;-63
2023/03/27 11:38:17;;;;;;;3.15;0.98;;;5.70;82.70;;;;;;4979954;28;20046;-63
2023/03/27 11:40:48;;;;;;;5.38;1.05;;;6.00;90.20;;;;;;4987649;28;20034;-63
2023/03/27 11:43:16;;;;;;;5.10;0.88;;;6.10;1.00;;;;;;4983883;28;20639;-63
2023/03/27 11:46:14;;;;;;;3.53;0.70;;;6.50;1.00;;;;;;4985271;28;20057;-63
2023/03/27 11:49:37;;;;;;;3.25;0.90;;;6.60;1.00;;;;;;4986052;28;20389;-63
2023/03/27 11:52:46;;;;;;;5.20;1.15;;;6.80;1.00;;;;;;4945878;28;20367;-63
2023/03/27 11:55:33;;;;;;;3.58;1.20;;;7.10;1.00;;;;;;4888656;29;20135;-63
2023/03/27 12:01:46;;;;;;;1.85;0.30;;;7.30;99.90;;;;;;4900698;29;20171;-63
2023/03/27 12:04:38;;;;;;;2.58;0.52;;;5.70;38.20;;;;;;4921294;29;20040;-61
2023/03/27 12:07:31;;;;;;;3.40;0.45;;;5.30;95.40;;;;;;4966528;28;20035;-61
2023/03/27 12:10:36;;;;;;;1.92;0.50;;;4.80;99.90;;;;;;4982380;28;20061;-61
2023/03/27 12:13:31;;;;;;;1.88;0.50;;;4.40;99.90;;;;;;4965672;28;20539;-61
2023/03/27 12:16:18;;;;;;;3.20;0.75;;;4.10;99.90;;;;;;4986126;28;20047;-62
2023/03/27 12:19:20;;;;;;;3.78;0.90;;;4.50;99.90;;;;;;4989232;28;20107;-62
2023/03/27 12:22:04;;;;;;;3.55;1.00;;;4.80;99.90;;;;;;4983687;28;20080;-62
2023/03/27 12:24:58;;;;;;;;;;;4.70;99.90;;;;;;4980784;28;20132;-62
2023/03/27 12:27:54;;;;;;;3.75;0.80;;;4.80;99.90;;;;;;4949446;28;19923;-62
2023/03/27 12:30:26;;;;;;;2.05;0.63;;;4.90;99.90;;;;;;4980604;28;20049;-61
2023/03/27 12:33:00;;;;;;;2.75;0.80;;;5.00;99.90;;;;;;4979882;28;20065;-62
2023/03/27 12:35:31;;;;;;;2.70;0.98;;;5.40;99.90;;;;;;4989365;28;20386;-63
2023/03/27 12:38:04;;;;;;;2.22;0.70;;;5.60;99.90;;;;;;4980376;28;20039;-61
2023/03/27 12:43:38;;;;;;;2.75;0.70;;;6.00;7.80;;;;;;4981480;28;19984;-62
2023/03/27 12:46:14;;;;;;;2.28;0.70;;;6.20;1.00;;;;;;4984177;28;20046;-62
2023/03/27 12:48:51;;;;;;;6.68;1.13;;;6.40;1.00;;;;;;4979145;28;20525;-63
2023/03/27 12:51:18;;;;;;;3.17;0.80;;;6.60;1.00;;;;;;4985223;28;20073;-62
2023/03/27 12:53:52;;;;;;;4.55;0.70;;;6.80;6.60;;;;;;4989176;28;20030;-63
2023/03/27 12:56:18;;;;;;;3.30;0.82;;;6.90;99.90;;;;;;4987615;28;20034;-63
2023/03/27 12:58:46;;;;;;;2.28;0.60;;;7.10;1.00;;;;;;4985162;28;20022;-63
2023/03/27 13:01:45;;;;;;;4.00;0.88;;;7.30;1.00;;;;;;4991608;28;20323;-63
2023/03/27 13:04:48;;;;;;;2.72;0.70;;;7.60;1.00;;;;;;4967964;28;20053;-63
2023/03/27 13:07:20;;;;;;;3.88;0.73;;;7.60;1.00;;;;;;4992761;28;20030;-61
2023/03/27 13:10:02;;;;;;;3.15;0.65;;;7.70;99.90;;;;;;4990133;28;20041;-62
2023/03/27 13:13:07;;;;;;;4.10;1.08;;;7.80;99.90;;;;;;4988254;28;20469;-61
2023/03/27 13:15:51;;;;;;;1.90;0.65;;;8.00;15.30;;;;;;4984821;28;20039;-61
2023/03/27 13:18:44;;;;;;;4.78;0.70;;;8.20;1.00;;;;;;4988357;28;20080;-62
2023/03/27 13:21:17;;;;;;;;;;;8.10;99.90;;;;;;4987282;28;20412;-61
2023/03/27 13:24:21;;;;;;;3.75;0.60;;;7.60;99.90;;;;;;4986341;28;20345;-62
2023/03/27 13:27:05;;;;;;;4.57;0.68;;;7.10;99.90;;;;;;4989258;28;20046;-61
2023/03/27 13:29:33;;;;;;;6.13;0.80;;;6.70;99.90;;;;;;4988232;28;20018;-61
2023/03/27 13:35:37;;;;;;;6.05;1.15;;;6.00;1.00;;;;;;5811709;23;20025;-59
2023/03/27 13:38:03;;;;;;;3.97;0.80;;;5.90;1.00;;;;;;4971849;28;20430;-59
2023/03/27 13:40:34;;;;;;;3.25;0.77;;;6.10;1.00;;;;;;4980738;28;20031;-59
2023/03/27 13:43:26;;;;;;;1.85;0.60;;;6.30;99.90;;;;;;4981748;28;20048;-59
2023/03/27 13:45:58;;;;;;;2.03;0.80;;;6.80;99.90;;;;;;5000687;28;20044;-59